createdAt,value
2023-04-15T00:00:46.717Z,6
2023-04-15T00:01:54.313Z,5
2023-04-15T00:03:01.335Z,5
2023-04-15T00:04:11.313Z,5
2023-04-15T00:05:19.090Z,5
2023-04-15T00:06:27.141Z,5
2023-04-15T00:07:34.114Z,5
2023-04-15T00:08:44.218Z,5
2023-04-15T00:09:51.180Z,4
2023-04-15T00:10:58.108Z,4
2023-04-15T00:12:06.029Z,4
2023-04-15T00:13:12.972Z,4
2023-04-15T00:14:20.029Z,5
2023-04-15T00:15:27.032Z,3
2023-04-15T00:16:34.041Z,4
2023-04-15T00:17:41.039Z,4
2023-04-15T00:18:48.823Z,3
2023-04-15T00:19:55.830Z,3
2023-04-15T00:21:02.824Z,3
2023-04-15T00:22:09.746Z,3
2023-04-15T00:23:16.867Z,3
2023-04-15T00:24:23.827Z,3
2023-04-15T00:25:30.742Z,3
2023-04-15T00:26:38.907Z,4
2023-04-15T00:27:46.926Z,4
2023-04-15T00:28:53.868Z,4
2023-04-15T00:30:00.847Z,3
2023-04-15T00:31:08.093Z,3
2023-04-15T00:32:17.563Z,4
2023-04-15T00:33:24.514Z,4
2023-04-15T00:34:31.519Z,3
2023-04-15T00:35:38.511Z,3
2023-04-15T00:36:45.480Z,4
2023-04-15T00:37:55.230Z,4
2023-04-15T00:39:02.959Z,4
2023-04-15T00:40:09.889Z,4
2023-04-15T00:41:19.744Z,5
2023-04-15T00:42:26.644Z,5
2023-04-15T00:43:33.604Z,4
2023-04-15T00:44:40.677Z,4
2023-04-15T00:45:52.496Z,3
2023-04-15T00:47:02.657Z,3
2023-04-15T00:48:12.595Z,3
2023-04-15T00:49:20.361Z,4
2023-04-15T00:50:27.382Z,4
2023-04-15T00:51:34.334Z,3
2023-04-15T00:52:41.327Z,3
2023-04-15T00:53:48.234Z,3
2023-04-15T00:54:55.285Z,3
2023-04-15T00:56:02.320Z,3
2023-04-15T00:57:09.424Z,3
2023-04-15T00:58:19.233Z,3
2023-04-15T00:59:27.736Z,3
2023-04-15T01:00:34.671Z,3
2023-04-15T01:01:41.776Z,4
2023-04-15T01:02:48.975Z,4
2023-04-15T01:03:56.074Z,4
2023-04-15T01:05:08.020Z,4
2023-04-15T01:06:15.042Z,5
2023-04-15T01:07:21.989Z,5
2023-04-15T01:08:28.908Z,4
2023-04-15T01:09:35.884Z,4
2023-04-15T01:10:42.918Z,3
2023-04-15T01:11:49.844Z,3
2023-04-15T01:12:56.835Z,3
2023-04-15T01:14:04.094Z,3
2023-04-15T01:15:11.028Z,3
2023-04-15T01:16:18.156Z,3
2023-04-15T01:17:25.119Z,3
2023-04-15T01:18:32.084Z,3
2023-04-15T01:19:39.017Z,3
2023-04-15T01:20:45.928Z,3
2023-04-15T01:21:58.192Z,3
2023-04-15T01:23:05.104Z,3
2023-04-15T01:24:12.143Z,3
2023-04-15T01:25:19.073Z,3
2023-04-15T01:26:32.188Z,3
2023-04-15T01:27:42.105Z,3
2023-04-15T01:28:51.564Z,4
2023-04-15T01:29:59.608Z,3
2023-04-15T01:31:06.691Z,4
2023-04-15T01:32:13.606Z,4
2023-04-15T01:33:20.579Z,4
2023-04-15T01:34:29.993Z,4
2023-04-15T01:35:36.924Z,4
2023-04-15T01:36:43.912Z,4
2023-04-15T01:37:50.880Z,4
2023-04-15T01:38:58.030Z,4
2023-04-15T01:40:04.859Z,4
2023-04-15T01:41:14.876Z,5
2023-04-15T01:42:21.810Z,5
2023-04-15T01:43:28.898Z,5
2023-04-15T01:44:35.825Z,6
2023-04-15T01:45:42.753Z,5
2023-04-15T01:46:49.897Z,5
2023-04-15T01:47:56.808Z,5
2023-04-15T01:49:03.971Z,5
2023-04-15T01:50:10.875Z,4
2023-04-15T01:51:17.878Z,4
2023-04-15T01:52:26.206Z,4
2023-04-15T01:53:33.267Z,4
2023-04-15T01:54:40.377Z,5
2023-04-15T01:55:47.484Z,6
2023-04-15T01:56:54.447Z,8
2023-04-15T01:58:01.314Z,8
2023-04-15T01:59:08.281Z,7
2023-04-15T02:00:15.232Z,8
2023-04-15T02:01:22.310Z,7
2023-04-15T02:02:31.954Z,8
2023-04-15T02:03:39.022Z,8
2023-04-15T02:04:48.793Z,9
2023-04-15T02:05:58.197Z,9
2023-04-15T02:07:05.433Z,10
2023-04-15T02:08:12.315Z,9
2023-04-15T02:09:22.021Z,10
2023-04-15T02:10:29.765Z,10
2023-04-15T02:11:36.751Z,10
2023-04-15T02:12:43.689Z,10
2023-04-15T02:13:50.611Z,9
2023-04-15T02:14:57.590Z,8
2023-04-15T02:16:04.532Z,8
2023-04-15T02:17:19.409Z,8
2023-04-15T02:18:26.362Z,7
2023-04-15T02:19:33.253Z,7
2023-04-15T02:20:40.186Z,7
2023-04-15T02:21:47.944Z,7
2023-04-15T02:22:54.889Z,7
2023-04-15T02:24:01.991Z,8
2023-04-15T02:25:09.046Z,8
2023-04-15T02:26:16.031Z,8
2023-04-15T02:27:25.917Z,8
2023-04-15T02:28:32.967Z,7
2023-04-15T02:29:40.044Z,8
2023-04-15T02:30:49.903Z,7
2023-04-15T02:31:56.862Z,7
2023-04-15T02:33:03.762Z,7
2023-04-15T02:34:12.287Z,7
2023-04-15T02:35:19.913Z,7
2023-04-15T02:36:26.958Z,8
2023-04-15T02:37:34.800Z,8
2023-04-15T02:38:44.514Z,8
2023-04-15T02:39:52.387Z,7
2023-04-15T02:40:59.279Z,8
2023-04-15T02:42:06.158Z,8
2023-04-15T02:43:13.126Z,9
2023-04-15T02:44:20.040Z,8
2023-04-15T02:45:27.029Z,9
2023-04-15T02:46:34.028Z,10
2023-04-15T02:47:43.228Z,10
2023-04-15T02:48:50.115Z,9
2023-04-15T02:49:59.827Z,9
2023-04-15T02:51:09.947Z,9
2023-04-15T02:52:19.799Z,9
2023-04-15T02:53:26.716Z,8
2023-04-15T02:54:36.613Z,9
2023-04-15T02:55:43.576Z,9
2023-04-15T02:56:53.385Z,9
2023-04-15T02:58:00.279Z,9
2023-04-15T02:59:07.240Z,8
2023-04-15T03:00:14.358Z,7
2023-04-15T03:01:21.348Z,7
2023-04-15T03:02:28.371Z,7
2023-04-15T03:03:41.088Z,7
2023-04-15T03:04:48.038Z,7
2023-04-15T03:05:55.062Z,7
2023-04-15T03:07:02.114Z,7
2023-04-15T03:08:09.130Z,7
2023-04-15T03:09:16.042Z,7
2023-04-15T03:10:22.989Z,7
2023-04-15T03:11:30.011Z,7
2023-04-15T03:12:37.656Z,7
2023-04-15T03:13:44.654Z,7
2023-04-15T03:14:51.612Z,7
2023-04-15T03:15:58.643Z,7
2023-04-15T03:17:08.958Z,8
2023-04-15T03:18:16.090Z,9
2023-04-15T03:19:22.927Z,8
2023-04-15T03:20:30.112Z,8
2023-04-15T03:21:37.086Z,8
2023-04-15T03:22:44.132Z,7
2023-04-15T03:23:51.994Z,8
2023-04-15T03:25:01.824Z,8
2023-04-15T03:26:16.424Z,8
2023-04-15T03:27:31.138Z,8
2023-04-15T03:28:38.899Z,7
2023-04-15T03:29:45.871Z,7
2023-04-15T03:30:52.778Z,7
2023-04-15T03:32:03.528Z,7
2023-04-15T03:33:10.532Z,7
2023-04-15T03:34:17.523Z,7
2023-04-15T03:35:24.405Z,7
2023-04-15T03:36:31.459Z,7
2023-04-15T03:37:38.422Z,7
2023-04-15T03:38:45.408Z,6
2023-04-15T03:39:52.311Z,7
2023-04-15T03:40:59.311Z,6
2023-04-15T03:42:06.261Z,6
2023-04-15T03:43:13.369Z,6
2023-04-15T03:44:20.313Z,6
2023-04-15T03:45:27.267Z,7
2023-04-15T03:46:35.276Z,7
2023-04-15T03:47:45.809Z,7
2023-04-15T03:48:54.033Z,8
2023-04-15T03:50:04.832Z,8
2023-04-15T03:51:15.301Z,8
2023-04-15T03:52:22.277Z,7
2023-04-15T03:53:32.279Z,8
2023-04-15T03:54:39.196Z,8
2023-04-15T03:55:46.179Z,8
2023-04-15T03:56:54.749Z,9
2023-04-15T03:58:01.661Z,9
2023-04-15T03:59:08.639Z,10
2023-04-15T04:00:15.580Z,9
2023-04-15T04:01:25.649Z,9
2023-04-15T04:02:32.573Z,10
2023-04-15T04:03:39.722Z,10
2023-04-15T04:04:46.502Z,9
2023-04-15T04:05:55.885Z,8
2023-04-15T04:07:03.579Z,9
2023-04-15T04:08:10.538Z,10
2023-04-15T04:09:17.451Z,9
2023-04-15T04:10:24.425Z,10
2023-04-15T04:11:31.392Z,9
2023-04-15T04:12:38.438Z,11
2023-04-15T04:13:46.675Z,9
2023-04-15T04:14:54.056Z,9
2023-04-15T04:16:01.769Z,9
2023-04-15T04:17:08.774Z,7
2023-04-15T04:18:15.693Z,8
2023-04-15T04:19:22.811Z,8
2023-04-15T04:20:29.699Z,8
2023-04-15T04:21:36.661Z,9
2023-04-15T04:22:43.570Z,9
2023-04-15T04:23:50.535Z,13
2023-04-15T04:24:57.455Z,12
2023-04-15T04:26:06.429Z,13
2023-04-15T04:27:13.435Z,13
2023-04-15T04:28:20.775Z,14
2023-04-15T04:29:27.665Z,12
2023-04-15T04:30:34.558Z,13
2023-04-15T04:31:41.618Z,12
2023-04-15T04:32:48.587Z,11
2023-04-15T04:33:56.525Z,11
2023-04-15T04:35:03.468Z,11
2023-04-15T04:36:12.609Z,11
2023-04-15T04:37:19.535Z,10
2023-04-15T04:38:27.365Z,10
2023-04-15T04:39:34.436Z,12
2023-04-15T04:40:41.458Z,12
2023-04-15T04:41:48.468Z,12
2023-04-15T04:42:58.001Z,12
2023-04-15T04:44:04.947Z,12
2023-04-15T04:45:11.963Z,11
2023-04-15T04:46:18.959Z,11
2023-04-15T04:47:26.015Z,11
2023-04-15T04:48:32.978Z,12
2023-04-15T04:49:45.000Z,12
2023-04-15T04:50:52.819Z,12
2023-04-15T04:52:00.875Z,12
2023-04-15T04:53:07.833Z,12
2023-04-15T04:54:14.755Z,12
2023-04-15T04:55:22.655Z,12
2023-04-15T04:56:32.471Z,12
2023-04-15T04:57:39.421Z,13
2023-04-15T04:58:46.416Z,13
2023-04-15T04:59:53.447Z,13
2023-04-15T05:01:07.710Z,14
2023-04-15T05:02:14.955Z,13
2023-04-15T05:03:22.973Z,14
2023-04-15T05:04:29.888Z,15
2023-04-15T05:05:36.784Z,23
2023-04-15T05:06:44.779Z,20
2023-04-15T05:07:55.787Z,22
2023-04-15T05:09:03.166Z,24
2023-04-15T05:10:09.896Z,18
2023-04-15T05:11:17.284Z,20
2023-04-15T05:12:24.248Z,22
2023-04-15T05:13:31.182Z,25
2023-04-15T05:14:40.861Z,30
2023-04-15T05:15:48.024Z,23
2023-04-15T05:16:54.962Z,22
2023-04-15T05:18:01.969Z,21
2023-04-15T05:19:12.629Z,21
2023-04-15T05:20:19.606Z,22
2023-04-15T05:21:27.470Z,20
2023-04-15T05:22:34.445Z,20
2023-04-15T05:23:41.547Z,22
2023-04-15T05:24:48.542Z,20
2023-04-15T05:25:56.519Z,19
2023-04-15T05:27:03.510Z,18
2023-04-15T05:28:10.438Z,18
2023-04-15T05:29:20.430Z,20
2023-04-15T05:30:27.366Z,19
2023-04-15T05:31:37.282Z,20
2023-04-15T05:32:44.345Z,19
2023-04-15T05:33:51.387Z,19
2023-04-15T05:34:58.366Z,18
2023-04-15T05:36:05.319Z,18
2023-04-15T05:37:12.334Z,17
2023-04-15T05:38:19.357Z,17
2023-04-15T05:39:26.427Z,18
2023-04-15T05:40:36.026Z,18
2023-04-15T05:41:43.016Z,18
2023-04-15T05:42:52.997Z,20
2023-04-15T05:44:00.024Z,18
2023-04-15T05:45:10.909Z,16
2023-04-15T05:46:17.972Z,15
2023-04-15T05:47:24.916Z,17
2023-04-15T05:48:31.762Z,17
2023-04-15T05:49:38.853Z,16
2023-04-15T05:50:48.349Z,16
2023-04-15T05:51:57.132Z,17
2023-04-15T05:53:04.083Z,16
2023-04-15T05:54:11.055Z,15
2023-04-15T05:55:18.018Z,16
2023-04-15T05:56:25.058Z,15
2023-04-15T05:57:32.102Z,15
2023-04-15T05:58:39.118Z,15
2023-04-15T05:59:46.062Z,13
2023-04-15T06:00:53.052Z,12
2023-04-15T06:01:59.995Z,12
2023-04-15T06:03:07.005Z,12
2023-04-15T06:04:13.969Z,11
2023-04-15T06:05:20.942Z,12
2023-04-15T06:06:27.849Z,13
2023-04-15T06:07:34.851Z,13
2023-04-15T06:08:44.536Z,13
2023-04-15T06:09:52.202Z,13
2023-04-15T06:10:59.301Z,13
2023-04-15T06:12:06.571Z,13
2023-04-15T06:13:13.513Z,13
2023-04-15T06:14:20.568Z,12
2023-04-15T06:15:28.406Z,11
2023-04-15T06:16:35.630Z,10
2023-04-15T06:17:42.790Z,10
2023-04-15T06:18:52.470Z,10
2023-04-15T06:19:59.500Z,11
2023-04-15T06:21:06.597Z,10
2023-04-15T06:22:13.633Z,9
2023-04-15T06:23:26.313Z,8
2023-04-15T06:24:31.679Z,8
2023-04-15T06:25:41.464Z,6
2023-04-15T06:26:48.511Z,7
2023-04-15T06:27:55.570Z,6
2023-04-15T06:29:02.848Z,6
2023-04-15T06:30:12.372Z,7
2023-04-15T06:31:19.387Z,7
2023-04-15T06:32:27.555Z,6
2023-04-15T06:33:34.873Z,5
2023-04-15T06:34:43.509Z,6
2023-04-15T06:35:50.664Z,6
2023-04-15T06:36:57.696Z,5
2023-04-15T06:38:04.959Z,5
2023-04-15T06:39:12.168Z,6
2023-04-15T06:40:19.135Z,6
2023-04-15T06:41:26.189Z,6
2023-04-15T06:42:33.311Z,6
2023-04-15T06:43:40.358Z,6
2023-04-15T06:44:47.262Z,6
2023-04-15T06:45:54.198Z,6
2023-04-15T06:47:01.110Z,4
2023-04-15T06:48:07.975Z,3
2023-04-15T06:49:14.721Z,3
2023-04-15T06:50:21.526Z,3
2023-04-15T06:51:28.335Z,3
2023-04-15T06:52:35.220Z,3
2023-04-15T06:53:42.264Z,3
2023-04-15T06:54:49.227Z,3
2023-04-15T06:55:56.114Z,3
2023-04-15T06:57:03.244Z,2
2023-04-15T06:58:10.031Z,3
2023-04-15T06:59:16.814Z,3
2023-04-15T07:00:23.644Z,3
2023-04-15T07:01:30.461Z,3
2023-04-15T07:02:37.415Z,2
2023-04-15T07:03:44.073Z,2
2023-04-15T07:04:50.943Z,3
2023-04-15T07:05:57.886Z,2
2023-04-15T07:07:04.707Z,2
2023-04-15T07:08:11.517Z,3
2023-04-15T07:09:18.366Z,2
2023-04-15T07:10:25.738Z,2
2023-04-15T07:11:32.182Z,2
2023-04-15T07:12:38.935Z,2
2023-04-15T07:13:45.700Z,2
2023-04-15T07:14:52.480Z,2
2023-04-15T07:15:59.233Z,2
2023-04-15T07:17:06.154Z,1
2023-04-15T07:18:12.875Z,1
2023-04-15T07:19:19.685Z,1
2023-04-15T07:20:26.548Z,1
2023-04-15T07:21:33.244Z,1
2023-04-15T07:22:40.096Z,1
2023-04-15T07:23:46.833Z,1
2023-04-15T07:24:53.674Z,1
2023-04-15T07:26:00.502Z,1
2023-04-15T07:27:07.347Z,1
2023-04-15T07:28:14.176Z,1
2023-04-15T07:29:20.951Z,1
2023-04-15T07:30:27.712Z,1
2023-04-15T07:31:34.507Z,1
2023-04-15T07:32:41.269Z,1
2023-04-15T07:33:48.145Z,0
2023-04-15T07:34:54.911Z,0
2023-04-15T07:36:01.711Z,0
2023-04-15T07:37:08.600Z,1
2023-04-15T07:38:15.442Z,0
2023-04-15T07:39:22.333Z,1
2023-04-15T07:40:29.139Z,0
2023-04-15T07:41:35.952Z,1
2023-04-15T07:42:42.705Z,0
2023-04-15T07:43:49.477Z,0
2023-04-15T07:44:56.351Z,0
2023-04-15T07:46:03.308Z,0
2023-04-15T07:47:10.083Z,0
2023-04-15T07:48:16.844Z,0
2023-04-15T07:49:23.583Z,0
2023-04-15T07:50:30.380Z,0
2023-04-15T07:51:37.158Z,0
2023-04-15T07:52:43.914Z,0
2023-04-15T07:53:50.710Z,0
2023-04-15T07:54:57.439Z,0
2023-04-15T07:56:04.314Z,0
2023-04-15T07:57:11.151Z,0
2023-04-15T07:58:17.883Z,0
2023-04-15T07:59:24.692Z,0
2023-04-15T08:00:31.503Z,0
2023-04-15T08:01:38.378Z,0
2023-04-15T08:02:45.204Z,0
2023-04-15T08:03:52.035Z,0
2023-04-15T08:04:58.759Z,0
2023-04-15T08:06:05.499Z,0
2023-04-15T08:07:12.344Z,0
2023-04-15T08:08:19.112Z,0
2023-04-15T08:09:25.879Z,0
2023-04-15T08:10:32.583Z,0
2023-04-15T08:11:39.396Z,0
2023-04-15T08:12:46.278Z,0
2023-04-15T08:13:53.087Z,0
2023-04-15T08:14:59.832Z,0
2023-04-15T08:16:06.830Z,0
2023-04-15T08:17:21.422Z,0
2023-04-15T08:18:28.125Z,0
2023-04-15T08:19:34.947Z,0
2023-04-15T08:20:41.695Z,0
2023-04-15T08:21:48.463Z,0
2023-04-15T08:22:55.157Z,0
2023-04-15T08:24:01.948Z,0
2023-04-15T08:25:08.898Z,0
2023-04-15T08:26:15.671Z,1
2023-04-15T08:27:22.512Z,0
2023-04-15T08:28:29.407Z,0
2023-04-15T08:29:36.155Z,0
2023-04-15T08:30:42.983Z,0
2023-04-15T08:31:49.828Z,0
2023-04-15T08:32:56.783Z,0
2023-04-15T08:34:03.550Z,0
2023-04-15T08:35:10.261Z,0
2023-04-15T08:36:17.040Z,0
2023-04-15T08:37:23.798Z,0
2023-04-15T08:38:30.620Z,1
2023-04-15T08:39:37.442Z,1
2023-04-15T08:40:52.682Z,1
2023-04-15T08:41:59.562Z,1
2023-04-15T08:43:06.422Z,1
2023-04-15T08:44:13.237Z,0
2023-04-15T08:45:20.026Z,0
2023-04-15T08:46:26.882Z,1
2023-04-15T08:47:36.771Z,1
2023-04-15T08:48:43.615Z,1
2023-04-15T08:49:50.430Z,0
2023-04-15T08:50:57.381Z,0
2023-04-15T08:52:04.280Z,0
2023-04-15T08:53:11.065Z,0
2023-04-15T08:54:17.860Z,1
2023-04-15T08:55:34.921Z,1
2023-04-15T08:56:46.789Z,0
2023-04-15T08:57:53.505Z,0
2023-04-15T08:59:00.472Z,1
2023-04-15T09:00:07.169Z,1
2023-04-15T09:01:14.374Z,1
2023-04-15T09:02:21.138Z,0
2023-04-15T09:03:27.999Z,1
2023-04-15T09:04:34.744Z,1
2023-04-15T09:05:41.527Z,1
2023-04-15T09:06:48.348Z,1
2023-04-15T09:07:55.236Z,1
2023-04-15T09:09:02.217Z,1
2023-04-15T09:10:08.848Z,1
2023-04-15T09:11:15.606Z,1
2023-04-15T09:12:22.433Z,1
2023-04-15T09:13:29.320Z,1
2023-04-15T09:14:36.078Z,1
2023-04-15T09:15:42.905Z,2
2023-04-15T09:16:50.477Z,1
2023-04-15T09:18:02.561Z,0
2023-04-15T09:19:09.282Z,1
2023-04-15T09:20:16.128Z,1
2023-04-15T09:21:22.996Z,1
2023-04-15T09:22:29.755Z,0
2023-04-15T09:23:36.551Z,0
2023-04-15T09:24:43.323Z,1
2023-04-15T09:25:50.180Z,1
2023-04-15T09:26:56.995Z,1
2023-04-15T09:28:03.749Z,1
2023-04-15T09:29:10.582Z,1
2023-04-15T09:30:17.429Z,1
2023-04-15T09:31:24.210Z,1
2023-04-15T09:32:34.009Z,1
2023-04-15T09:33:40.895Z,1
2023-04-15T09:34:52.734Z,1
2023-04-15T09:35:59.627Z,1
2023-04-15T09:37:07.646Z,1
2023-04-15T09:38:13.187Z,1
2023-04-15T09:39:19.990Z,2
2023-04-15T09:40:26.858Z,1
2023-04-15T09:41:33.628Z,1
2023-04-15T09:42:40.406Z,1
2023-04-15T09:43:57.316Z,1
2023-04-15T09:45:04.101Z,1
2023-04-15T09:46:10.912Z,1
2023-04-15T09:47:17.860Z,1
2023-04-15T09:48:29.690Z,1
2023-04-15T09:49:36.501Z,1
2023-04-15T09:50:43.204Z,1
2023-04-15T09:52:01.622Z,1
2023-04-15T09:52:56.817Z,1
2023-04-15T09:54:03.736Z,1
2023-04-15T09:55:10.559Z,1
2023-04-15T09:56:17.403Z,1
2023-04-15T09:57:24.185Z,1
2023-04-15T09:58:36.005Z,1
2023-04-15T09:59:42.840Z,1
2023-04-15T10:00:49.768Z,1
2023-04-15T10:01:56.593Z,1
2023-04-15T10:03:03.405Z,1
2023-04-15T10:04:10.142Z,1
2023-04-15T10:05:16.890Z,1
2023-04-15T10:06:23.736Z,1
2023-04-15T10:07:30.491Z,1
2023-04-15T10:08:37.235Z,1
2023-04-15T10:09:43.994Z,1
2023-04-15T10:10:53.337Z,1
2023-04-15T10:12:00.225Z,1
2023-04-15T10:13:07.206Z,1
2023-04-15T10:14:13.975Z,1
2023-04-15T10:15:20.704Z,1
2023-04-15T10:16:27.615Z,1
2023-04-15T10:17:34.204Z,1
2023-04-15T10:18:41.053Z,1
2023-04-15T10:19:47.842Z,1
2023-04-15T10:20:54.630Z,1
2023-04-15T10:22:01.418Z,1
2023-04-15T10:23:09.519Z,1
2023-04-15T10:24:14.969Z,1
2023-04-15T10:25:21.696Z,1
2023-04-15T10:26:28.507Z,1
2023-04-15T10:27:35.258Z,1
2023-04-15T10:28:42.046Z,1
2023-04-15T10:29:48.889Z,1
2023-04-15T10:30:55.668Z,1
2023-04-15T10:32:02.486Z,1
2023-04-15T10:33:09.296Z,1
2023-04-15T10:34:16.082Z,1
2023-04-15T10:35:22.938Z,1
2023-04-15T10:36:29.723Z,1
2023-04-15T10:37:36.487Z,1
2023-04-15T10:38:43.349Z,1
2023-04-15T10:39:50.125Z,1
2023-04-15T10:40:56.930Z,1
2023-04-15T10:42:13.832Z,1
2023-04-15T10:43:23.654Z,1
2023-04-15T10:44:30.438Z,1
2023-04-15T10:45:37.321Z,1
2023-04-15T10:46:44.201Z,1
2023-04-15T10:47:51.012Z,1
2023-04-15T10:48:57.781Z,1
2023-04-15T10:50:04.535Z,1
2023-04-15T10:51:11.516Z,1
2023-04-15T10:52:18.311Z,1
2023-04-15T10:53:27.741Z,1
2023-04-15T10:54:34.641Z,1
2023-04-15T10:55:41.410Z,1
2023-04-15T10:56:48.122Z,1
2023-04-15T10:58:02.892Z,1
2023-04-15T10:59:09.656Z,1
2023-04-15T11:00:16.406Z,1
2023-04-15T11:01:23.359Z,1
2023-04-15T11:02:40.247Z,1
2023-04-15T11:03:47.014Z,1
2023-04-15T11:04:53.783Z,1
2023-04-15T11:06:03.353Z,1
2023-04-15T11:07:10.243Z,1
2023-04-15T11:08:16.976Z,1
2023-04-15T11:09:23.689Z,1
2023-04-15T11:10:35.536Z,2
2023-04-15T11:11:42.273Z,2
2023-04-15T11:12:59.307Z,1
2023-04-15T11:14:08.685Z,2
2023-04-15T11:15:18.464Z,2
2023-04-15T11:16:33.051Z,1
2023-04-15T11:17:46.476Z,1
2023-04-15T11:18:51.585Z,2
2023-04-15T11:19:58.387Z,1
2023-04-15T11:21:05.325Z,1
2023-04-15T11:22:12.086Z,1
2023-04-15T11:23:18.874Z,1
2023-04-15T11:24:35.798Z,2
2023-04-15T11:25:50.503Z,2
2023-04-15T11:26:59.967Z,1
2023-04-15T11:28:06.747Z,1
2023-04-15T11:29:13.632Z,1
2023-04-15T11:30:20.433Z,1
2023-04-15T11:31:30.343Z,1
2023-04-15T11:32:37.128Z,1
2023-04-15T11:33:46.663Z,1
2023-04-15T11:34:58.534Z,1
2023-04-15T11:36:05.317Z,1
2023-04-15T11:37:12.165Z,1
2023-04-15T11:38:18.925Z,1
2023-04-15T11:39:25.959Z,1
2023-04-15T11:40:33.819Z,2
2023-04-15T11:41:40.614Z,1
2023-04-15T11:42:50.057Z,1
2023-04-15T11:44:04.407Z,1
2023-04-15T11:45:11.143Z,1
2023-04-15T11:46:18.222Z,1
2023-04-15T11:47:25.037Z,1
2023-04-15T11:48:31.941Z,1
2023-04-15T11:49:38.720Z,1
2023-04-15T11:50:45.672Z,1
2023-04-15T11:51:57.548Z,1
2023-04-15T11:53:05.689Z,1
2023-04-15T11:54:11.122Z,1
2023-04-15T11:55:17.912Z,1
2023-04-15T11:56:24.697Z,1
2023-04-15T11:57:31.549Z,1
2023-04-15T11:58:38.391Z,1
2023-04-15T11:59:46.141Z,1
2023-04-15T12:00:52.040Z,1
2023-04-15T12:01:58.863Z,1
2023-04-15T12:03:05.748Z,1
2023-04-15T12:04:23.304Z,1
2023-04-15T12:05:27.192Z,1
2023-04-15T12:06:33.945Z,1
2023-04-15T12:07:40.822Z,1
2023-04-15T12:08:57.865Z,1
2023-04-15T12:10:04.948Z,1
2023-04-15T12:11:11.951Z,1
2023-04-15T12:12:18.780Z,1
2023-04-15T12:13:25.574Z,1
2023-04-15T12:14:32.417Z,1
2023-04-15T12:15:39.312Z,1
2023-04-15T12:16:48.525Z,1
2023-04-15T12:17:52.907Z,1
2023-04-15T12:18:59.633Z,1
2023-04-15T12:20:14.268Z,1
2023-04-15T12:21:23.941Z,1
2023-04-15T12:22:30.844Z,1
2023-04-15T12:23:37.685Z,1
2023-04-15T12:24:52.396Z,1
2023-04-15T12:25:59.376Z,1
2023-04-15T12:27:06.179Z,1
2023-04-15T12:28:12.916Z,1
2023-04-15T12:29:19.731Z,1
2023-04-15T12:30:29.342Z,1
2023-04-15T12:31:36.159Z,1
2023-04-15T12:32:53.078Z,1
2023-04-15T12:33:59.838Z,1
2023-04-15T12:35:06.627Z,2
2023-04-15T12:36:13.460Z,1
2023-04-15T12:37:20.271Z,1
2023-04-15T12:38:27.040Z,1
2023-04-15T12:39:33.820Z,1
2023-04-15T12:40:43.287Z,1
2023-04-15T12:41:50.056Z,1
2023-04-15T12:42:56.841Z,1
2023-04-15T12:44:03.897Z,1
2023-04-15T12:45:10.617Z,1
2023-04-15T12:46:17.513Z,1
2023-04-15T12:47:24.373Z,1
2023-04-15T12:48:31.123Z,1
2023-04-15T12:49:37.939Z,1
2023-04-15T12:50:44.732Z,1
2023-04-15T12:51:51.532Z,1
2023-04-15T12:52:58.257Z,1
2023-04-15T12:54:05.136Z,1
2023-04-15T12:55:11.846Z,1
2023-04-15T12:56:18.661Z,1
2023-04-15T12:57:25.443Z,1
2023-04-15T12:58:32.240Z,1
2023-04-15T12:59:39.105Z,1
2023-04-15T13:00:45.931Z,1
2023-04-15T13:01:52.883Z,1
2023-04-15T13:02:59.602Z,1
2023-04-15T13:04:06.560Z,1
2023-04-15T13:05:13.360Z,1
2023-04-15T13:06:20.121Z,1
2023-04-15T13:07:26.866Z,1
2023-04-15T13:08:33.678Z,1
2023-04-15T13:09:40.477Z,1
2023-04-15T13:10:47.303Z,1
2023-04-15T13:11:54.086Z,1
2023-04-15T13:13:00.889Z,1
2023-04-15T13:14:07.677Z,1
2023-04-15T13:15:17.068Z,1
2023-04-15T13:16:23.961Z,1
2023-04-15T13:17:30.734Z,1
2023-04-15T13:18:37.500Z,1
2023-04-15T13:19:44.335Z,1
2023-04-15T13:20:51.107Z,1
2023-04-15T13:21:57.916Z,1
2023-04-15T13:23:04.820Z,1
2023-04-15T13:24:11.642Z,1
2023-04-15T13:25:18.387Z,1
2023-04-15T13:26:25.215Z,1
2023-04-15T13:27:31.987Z,1
2023-04-15T13:28:38.840Z,1
2023-04-15T13:29:45.576Z,1
2023-04-15T13:30:52.364Z,1
2023-04-15T13:31:59.237Z,1
2023-04-15T13:33:05.970Z,1
2023-04-15T13:34:12.793Z,1
2023-04-15T13:35:19.638Z,1
2023-04-15T13:36:26.368Z,1
2023-04-15T13:37:33.104Z,1
2023-04-15T13:38:39.917Z,1
2023-04-15T13:39:46.716Z,1
2023-04-15T13:40:53.515Z,1
2023-04-15T13:42:00.308Z,1
2023-04-15T13:43:07.184Z,1
2023-04-15T13:44:13.980Z,1
2023-04-15T13:45:20.831Z,1
2023-04-15T13:46:27.670Z,1
2023-04-15T13:47:34.532Z,1
2023-04-15T13:48:41.361Z,1
2023-04-15T13:49:48.141Z,1
2023-04-15T13:50:54.995Z,1
2023-04-15T13:52:01.775Z,1
2023-04-15T13:53:08.654Z,1
2023-04-15T13:54:15.452Z,1
2023-04-15T13:55:23.828Z,1
2023-04-15T13:56:29.049Z,1
2023-04-15T13:57:35.803Z,1
2023-04-15T13:58:42.642Z,1
2023-04-15T13:59:49.404Z,1
2023-04-15T14:00:56.352Z,1
2023-04-15T14:02:03.220Z,1
2023-04-15T14:03:10.165Z,1
2023-04-15T14:04:16.831Z,1
2023-04-15T14:05:23.556Z,1
2023-04-15T14:06:30.364Z,1
2023-04-15T14:07:37.349Z,1
2023-04-15T14:08:44.106Z,1
2023-04-15T14:09:50.935Z,1
2023-04-15T14:10:57.765Z,1
2023-04-15T14:12:04.566Z,1
2023-04-15T14:13:11.403Z,1
2023-04-15T14:14:18.216Z,1
2023-04-15T14:15:25.041Z,1
2023-04-15T14:16:32.103Z,1
2023-04-15T14:17:39.195Z,1
2023-04-15T14:18:46.408Z,1
2023-04-15T14:19:52.841Z,1
2023-04-15T14:20:59.657Z,1
2023-04-15T14:22:06.457Z,1
2023-04-15T14:23:13.232Z,1
2023-04-15T14:24:20.036Z,1
2023-04-15T14:25:33.067Z,1
2023-04-15T14:26:33.703Z,2
2023-04-15T14:27:40.512Z,1
2023-04-15T14:28:47.280Z,1
2023-04-15T14:29:54.223Z,1
2023-04-15T14:31:01.051Z,1
2023-04-15T14:32:11.720Z,1
2023-04-15T14:33:14.698Z,1
2023-04-15T14:34:21.549Z,1
2023-04-15T14:35:28.315Z,1
2023-04-15T14:36:35.129Z,1
2023-04-15T14:37:41.847Z,1
2023-04-15T14:38:48.823Z,1
2023-04-15T14:39:55.417Z,1
2023-04-15T14:41:02.330Z,1
2023-04-15T14:42:09.194Z,2
2023-04-15T14:43:15.944Z,2
2023-04-15T14:44:22.713Z,2
2023-04-15T14:45:29.505Z,2
2023-04-15T14:46:36.352Z,2
2023-04-15T14:47:43.282Z,2
2023-04-15T14:48:49.997Z,2
2023-04-15T14:49:56.861Z,2
2023-04-15T14:51:03.588Z,2
2023-04-15T14:52:10.377Z,3
2023-04-15T14:53:17.271Z,3
2023-04-15T14:54:24.077Z,3
2023-04-15T14:55:30.850Z,4
2023-04-15T14:56:37.749Z,4
2023-04-15T14:57:44.394Z,5
2023-04-15T14:58:51.145Z,5
2023-04-15T14:59:57.922Z,4
2023-04-15T15:01:04.754Z,4
2023-04-15T15:02:12.818Z,4
2023-04-15T15:03:18.396Z,4
2023-04-15T15:04:25.288Z,4
2023-04-15T15:05:32.167Z,4
2023-04-15T15:06:38.888Z,4
2023-04-15T15:07:45.712Z,5
2023-04-15T15:08:52.570Z,4
2023-04-15T15:09:59.420Z,4
2023-04-15T15:11:06.308Z,4
2023-04-15T15:12:13.109Z,4
2023-04-15T15:13:19.921Z,4
2023-04-15T15:14:26.646Z,4
2023-04-15T15:15:33.515Z,4
2023-04-15T15:16:40.311Z,3
2023-04-15T15:17:47.158Z,4
2023-04-15T15:18:53.880Z,4
2023-04-15T15:20:00.676Z,4
2023-04-15T15:21:07.755Z,4
2023-04-15T15:22:14.538Z,4
2023-04-15T15:23:21.403Z,3
2023-04-15T15:24:28.174Z,3
2023-04-15T15:25:34.968Z,4
2023-04-15T15:26:41.832Z,3
2023-04-15T15:27:48.636Z,3
2023-04-15T15:28:55.408Z,4
2023-04-15T15:30:02.367Z,4
2023-04-15T15:31:09.429Z,4
2023-04-15T15:32:16.300Z,5
2023-04-15T15:33:23.144Z,5
2023-04-15T15:34:29.915Z,5
2023-04-15T15:35:36.726Z,5
2023-04-15T15:36:43.535Z,4
2023-04-15T15:37:50.293Z,4
2023-04-15T15:38:57.155Z,5
2023-04-15T15:40:03.962Z,3
2023-04-15T15:41:11.072Z,3
2023-04-15T15:42:17.904Z,3
2023-04-15T15:43:24.675Z,3
2023-04-15T15:44:32.519Z,2
2023-04-15T15:45:38.242Z,2
2023-04-15T15:46:45.083Z,2
2023-04-15T15:47:52.145Z,3
2023-04-15T15:48:59.135Z,3
2023-04-15T15:50:06.417Z,3
2023-04-15T15:51:12.810Z,3
2023-04-15T15:52:19.600Z,3
2023-04-15T15:53:26.316Z,4
2023-04-15T15:54:33.151Z,4
2023-04-15T15:55:39.932Z,4
2023-04-15T15:56:46.787Z,4
2023-04-15T15:57:53.538Z,4
2023-04-15T15:59:00.360Z,4
2023-04-15T16:00:11.717Z,4
2023-04-15T16:01:14.351Z,4
2023-04-15T16:02:30.711Z,3
2023-04-15T16:03:28.139Z,3
2023-04-15T16:04:34.862Z,2
2023-04-15T16:05:41.597Z,2
2023-04-15T16:06:48.519Z,3
2023-04-15T16:07:55.397Z,3
2023-04-15T16:09:02.355Z,3
2023-04-15T16:10:09.015Z,3
2023-04-15T16:11:15.853Z,3
2023-04-15T16:12:22.667Z,3
2023-04-15T16:13:29.461Z,3
2023-04-15T16:14:36.225Z,3
2023-04-15T16:15:43.042Z,3
2023-04-15T16:16:50.002Z,3
2023-04-15T16:17:56.741Z,3
2023-04-15T16:19:03.762Z,3
2023-04-15T16:20:10.330Z,3
2023-04-15T16:21:17.135Z,3
2023-04-15T16:22:23.977Z,3
2023-04-15T16:23:30.873Z,2
2023-04-15T16:24:37.545Z,1
2023-04-15T16:25:44.367Z,1
2023-04-15T16:26:51.229Z,2
2023-04-15T16:28:03.339Z,2
2023-04-15T16:29:04.992Z,2
2023-04-15T16:30:11.546Z,2
2023-04-15T16:31:18.364Z,2
2023-04-15T16:32:25.187Z,2